Kendleton, Texas
Current Conditions -  °F | °C
As of 11:35 PM on Friday 19 Dec 2014 (Local Time) from KARM Reporting Station
Overcast Overcast  
Wind Chill: 53°   Ceiling: 900
Heat Index: 53°   Visibility: 7mi
Dew Point: 51°   Wind: 13mph
Humidity: 94%   Direction: 360°N
Pressure: 30.15"   Gusts: NA
Location:  29.45°N, 95.99°W
Report Text: KARM 200535Z AUTO 36011KT 7SM OVC009 12/11 A3015 RMK AO2 T01150105
Loading
Personal Weather Stations






























Interactive Weather Map New forecast layout! Learn more

10-Day Weather Forecast

Advertisements
Track Severe Weather on mobile